Terminal Aerodrome Forecast
Issued by NWS Quad Cities IA IL

Home | Current Version | Previous Version | Text Only | Print | Product List | Glossary On
Versions: 1 2 3 4 5 6 7 8 9 10 11 12 13 14 15 16 17 18 19 20 21 22
000
FTUS43 KDVN 210520
TAFDBQ
TAF
KDBQ 210520Z 2106/2206 19012G19KT P6SM BKN150 WS018/21045KT
     FM211500 18017G23KT P6SM BKN100
     FM212100 18017G25KT P6SM BKN030
     FM220200 17014G20KT P6SM VCSH BKN025=

USA.gov is the U.S. government's official web portal to all federal, state and local government web resources and services.